sensor_id;sensor_type;location;lat;lon;timestamp;temperature;humidity
53498;DHT22;39382;47.168;16.008;2022-12-20T00:00:44;-0.70;99.90
53498;DHT22;39382;47.168;16.008;2022-12-20T00:03:09;-0.70;99.90
53498;DHT22;39382;47.168;16.008;2022-12-20T00:05:36;-0.70;99.90
53498;DHT22;39382;47.168;16.008;2022-12-20T00:08:01;-0.70;99.90
53498;DHT22;39382;47.168;16.008;2022-12-20T00:10:28;-0.70;99.90
53498;DHT22;39382;47.168;16.008;2022-12-20T00:12:54;-0.70;99.90
53498;DHT22;39382;47.168;16.008;2022-12-20T00:15:19;-0.70;99.90
53498;DHT22;39382;47.168;16.008;2022-12-20T00:17:45;-0.70;99.90
53498;DHT22;39382;47.168;16.008;2022-12-20T00:20:10;-0.70;99.90
53498;DHT22;39382;47.168;16.008;2022-12-20T00:22:36;-0.70;99.90
53498;DHT22;39382;47.168;16.008;2022-12-20T00:25:02;-0.70;99.90
53498;DHT22;39382;47.168;16.008;2022-12-20T00:27:27;-0.70;99.90
53498;DHT22;39382;47.168;16.008;2022-12-20T00:29:54;-0.70;99.90
53498;DHT22;39382;47.168;16.008;2022-12-20T00:32:19;-0.80;99.90
53498;DHT22;39382;47.168;16.008;2022-12-20T00:34:45;-0.70;99.90
53498;DHT22;39382;47.168;16.008;2022-12-20T00:37:10;-0.70;99.90
53498;DHT22;39382;47.168;16.008;2022-12-20T00:39:36;-0.70;99.90
53498;DHT22;39382;47.168;16.008;2022-12-20T00:42:01;-0.70;99.90
53498;DHT22;39382;47.168;16.008;2022-12-20T00:44:27;-0.70;99.90
53498;DHT22;39382;47.168;16.008;2022-12-20T00:46:52;-0.80;99.90
53498;DHT22;39382;47.168;16.008;2022-12-20T00:49:18;-0.80;99.90
53498;DHT22;39382;47.168;16.008;2022-12-20T00:51:44;-0.70;99.90
53498;DHT22;39382;47.168;16.008;2022-12-20T00:54:09;-0.80;99.90
53498;DHT22;39382;47.168;16.008;2022-12-20T00:56:35;-0.80;99.90
53498;DHT22;39382;47.168;16.008;2022-12-20T00:59:00;-0.80;99.90
53498;DHT22;39382;47.168;16.008;2022-12-20T01:01:27;-0.80;99.90
53498;DHT22;39382;47.168;16.008;2022-12-20T01:03:53;-0.80;99.90
53498;DHT22;39382;47.168;16.008;2022-12-20T01:06:19;-0.80;99.90
53498;DHT22;39382;47.168;16.008;2022-12-20T01:08:44;-0.80;99.90
53498;DHT22;39382;47.168;16.008;2022-12-20T01:11:12;-0.80;99.90
53498;DHT22;39382;47.168;16.008;2022-12-20T01:13:38;-0.70;99.90
53498;DHT22;39382;47.168;16.008;2022-12-20T01:16:07;-0.80;99.90
53498;DHT22;39382;47.168;16.008;2022-12-20T01:18:34;-0.80;99.90
53498;DHT22;39382;47.168;16.008;2022-12-20T01:21:03;-0.80;99.90
53498;DHT22;39382;47.168;16.008;2022-12-20T01:23:29;-1.00;99.90
53498;DHT22;39382;47.168;16.008;2022-12-20T01:25:56;-0.80;99.90
53498;DHT22;39382;47.168;16.008;2022-12-20T01:28:22;-1.00;99.90
53498;DHT22;39382;47.168;16.008;2022-12-20T01:30:47;-1.00;99.90
53498;DHT22;39382;47.168;16.008;2022-12-20T01:38:06;-1.00;99.90
53498;DHT22;39382;47.168;16.008;2022-12-20T01:40:31;-1.00;99.90
53498;DHT22;39382;47.168;16.008;2022-12-20T01:42:57;-0.90;99.90
53498;DHT22;39382;47.168;16.008;2022-12-20T01:45:26;-0.90;99.90
53498;DHT22;39382;47.168;16.008;2022-12-20T01:47:52;-0.90;99.90
53498;DHT22;39382;47.168;16.008;2022-12-20T01:50:17;-0.90;99.90
53498;DHT22;39382;47.168;16.008;2022-12-20T01:52:43;-0.90;99.90
53498;DHT22;39382;47.168;16.008;2022-12-20T01:55:11;-0.90;99.90
53498;DHT22;39382;47.168;16.008;2022-12-20T01:57:45;-0.90;99.90
53498;DHT22;39382;47.168;16.008;2022-12-20T02:00:12;-0.80;99.90
53498;DHT22;39382;47.168;16.008;2022-12-20T02:02:38;-0.90;99.90
53498;DHT22;39382;47.168;16.008;2022-12-20T02:05:04;-0.90;99.90
53498;DHT22;39382;47.168;16.008;2022-12-20T02:07:30;-0.80;99.90
53498;DHT22;39382;47.168;16.008;2022-12-20T02:09:57;-0.90;99.90
53498;DHT22;39382;47.168;16.008;2022-12-20T02:12:23;-0.90;99.90
53498;DHT22;39382;47.168;16.008;2022-12-20T02:15:11;-0.90;99.90
53498;DHT22;39382;47.168;16.008;2022-12-20T02:25:11;-0.90;99.90
53498;DHT22;39382;47.168;16.008;2022-12-20T02:27:44;-0.80;99.90
53498;DHT22;39382;47.168;16.008;2022-12-20T02:32:54;-0.80;99.90
53498;DHT22;39382;47.168;16.008;2022-12-20T02:35:22;-0.80;99.90
53498;DHT22;39382;47.168;16.008;2022-12-20T02:37:49;-0.90;99.90
53498;DHT22;39382;47.168;16.008;2022-12-20T02:40:16;-0.80;99.90
53498;DHT22;39382;47.168;16.008;2022-12-20T02:42:42;-0.90;99.90
53498;DHT22;39382;47.168;16.008;2022-12-20T02:45:09;-0.90;99.90
53498;DHT22;39382;47.168;16.008;2022-12-20T02:50:12;-0.80;99.90
53498;DHT22;39382;47.168;16.008;2022-12-20T02:52:38;-0.90;99.90
53498;DHT22;39382;47.168;16.008;2022-12-20T02:55:05;-0.90;99.90
53498;DHT22;39382;47.168;16.008;2022-12-20T02:57:37;-0.80;99.90
53498;DHT22;39382;47.168;16.008;2022-12-20T03:00:04;-0.80;99.90
53498;DHT22;39382;47.168;16.008;2022-12-20T03:02:31;-0.90;99.90
53498;DHT22;39382;47.168;16.008;2022-12-20T03:05:17;-0.80;99.90
53498;DHT22;39382;47.168;16.008;2022-12-20T03:07:44;-0.90;99.90
53498;DHT22;39382;47.168;16.008;2022-12-20T03:10:10;-0.80;99.90
53498;DHT22;39382;47.168;16.008;2022-12-20T03:12:35;-0.80;99.90
53498;DHT22;39382;47.168;16.008;2022-12-20T03:15:01;-0.60;99.90
53498;DHT22;39382;47.168;16.008;2022-12-20T03:17:26;-0.90;99.90
53498;DHT22;39382;47.168;16.008;2022-12-20T03:19:52;-0.80;99.90
53498;DHT22;39382;47.168;16.008;2022-12-20T03:22:17;-0.80;99.90
53498;DHT22;39382;47.168;16.008;2022-12-20T03:24:43;-0.90;99.90
53498;DHT22;39382;47.168;16.008;2022-12-20T03:27:08;-0.90;99.90
53498;DHT22;39382;47.168;16.008;2022-12-20T03:29:34;-0.90;99.90
53498;DHT22;39382;47.168;16.008;2022-12-20T03:31:59;-0.90;99.90
53498;DHT22;39382;47.168;16.008;2022-12-20T03:34:25;-0.90;99.90
53498;DHT22;39382;47.168;16.008;2022-12-20T03:36:50;-0.90;99.90
53498;DHT22;39382;47.168;16.008;2022-12-20T03:39:16;-0.90;99.90
53498;DHT22;39382;47.168;16.008;2022-12-20T03:41:41;-1.00;99.90
53498;DHT22;39382;47.168;16.008;2022-12-20T03:44:07;-0.90;99.90
53498;DHT22;39382;47.168;16.008;2022-12-20T03:46:32;-0.90;99.90
53498;DHT22;39382;47.168;16.008;2022-12-20T03:48:58;-0.90;99.90
53498;DHT22;39382;47.168;16.008;2022-12-20T03:51:23;-0.90;99.90
53498;DHT22;39382;47.168;16.008;2022-12-20T03:53:49;-0.90;99.90
53498;DHT22;39382;47.168;16.008;2022-12-20T03:56:15;-1.00;99.90
53498;DHT22;39382;47.168;16.008;2022-12-20T03:58:41;-1.00;99.90
53498;DHT22;39382;47.168;16.008;2022-12-20T04:01:20;-1.00;99.90
53498;DHT22;39382;47.168;16.008;2022-12-20T04:03:46;-0.90;99.90
53498;DHT22;39382;47.168;16.008;2022-12-20T04:06:11;-1.00;99.90
53498;DHT22;39382;47.168;16.008;2022-12-20T04:08:37;-1.00;99.90
53498;DHT22;39382;47.168;16.008;2022-12-20T04:11:02;-0.90;99.90
53498;DHT22;39382;47.168;16.008;2022-12-20T04:13:40;-0.90;99.90
53498;DHT22;39382;47.168;16.008;2022-12-20T04:16:06;-0.90;99.90
53498;DHT22;39382;47.168;16.008;2022-12-20T04:18:31;-0.90;99.90
53498;DHT22;39382;47.168;16.008;2022-12-20T04:20:58;-0.90;99.90
53498;DHT22;39382;47.168;16.008;2022-12-20T04:23:24;-0.80;99.90
53498;DHT22;39382;47.168;16.008;2022-12-20T04:25:49;-0.90;99.90
53498;DHT22;39382;47.168;16.008;2022-12-20T04:28:15;-0.90;99.90
53498;DHT22;39382;47.168;16.008;2022-12-20T04:30:40;-0.90;99.90
53498;DHT22;39382;47.168;16.008;2022-12-20T04:33:06;-0.90;99.90
53498;DHT22;39382;47.168;16.008;2022-12-20T04:35:31;-0.80;99.90
53498;DHT22;39382;47.168;16.008;2022-12-20T04:37:57;-0.90;99.90
53498;DHT22;39382;47.168;16.008;2022-12-20T04:40:22;-0.80;99.90
53498;DHT22;39382;47.168;16.008;2022-12-20T04:42:48;-0.80;99.90
53498;DHT22;39382;47.168;16.008;2022-12-20T04:45:13;-0.80;99.90
53498;DHT22;39382;47.168;16.008;2022-12-20T04:47:39;-0.90;99.90
53498;DHT22;39382;47.168;16.008;2022-12-20T04:50:05;-0.40;99.90
53498;DHT22;39382;47.168;16.008;2022-12-20T04:52:31;-0.60;99.90
53498;DHT22;39382;47.168;16.008;2022-12-20T04:55:15;-0.80;99.90
53498;DHT22;39382;47.168;16.008;2022-12-20T04:57:40;-0.70;99.90
53498;DHT22;39382;47.168;16.008;2022-12-20T05:00:06;-0.80;99.90
53498;DHT22;39382;47.168;16.008;2022-12-20T05:02:31;-0.50;99.90
53498;DHT22;39382;47.168;16.008;2022-12-20T05:04:57;-0.70;99.90
53498;DHT22;39382;47.168;16.008;2022-12-20T05:07:22;-0.30;99.90
53498;DHT22;39382;47.168;16.008;2022-12-20T05:09:48;-0.30;99.90
53498;DHT22;39382;47.168;16.008;2022-12-20T05:12:13;0.00;99.90
53498;DHT22;39382;47.168;16.008;2022-12-20T05:14:39;-0.40;99.90
53498;DHT22;39382;47.168;16.008;2022-12-20T05:17:04;-0.50;99.90
53498;DHT22;39382;47.168;16.008;2022-12-20T05:19:30;-0.60;99.90
53498;DHT22;39382;47.168;16.008;2022-12-20T05:21:55;-0.60;99.90
53498;DHT22;39382;47.168;16.008;2022-12-20T05:24:39;-0.60;99.90
53498;DHT22;39382;47.168;16.008;2022-12-20T05:27:24;-0.60;99.90
53498;DHT22;39382;47.168;16.008;2022-12-20T05:29:49;-0.60;99.90
53498;DHT22;39382;47.168;16.008;2022-12-20T05:32:14;-0.60;99.90
53498;DHT22;39382;47.168;16.008;2022-12-20T05:34:40;-0.70;99.90
53498;DHT22;39382;47.168;16.008;2022-12-20T05:37:05;-0.70;99.90
53498;DHT22;39382;47.168;16.008;2022-12-20T05:39:31;-0.60;99.90
53498;DHT22;39382;47.168;16.008;2022-12-20T05:41:58;-0.70;99.90
53498;DHT22;39382;47.168;16.008;2022-12-20T05:44:23;-0.70;99.90
53498;DHT22;39382;47.168;16.008;2022-12-20T05:46:49;-0.70;99.90
53498;DHT22;39382;47.168;16.008;2022-12-20T05:51:40;-0.70;99.90
53498;DHT22;39382;47.168;16.008;2022-12-20T05:54:06;-0.80;99.90
53498;DHT22;39382;47.168;16.008;2022-12-20T05:56:31;-0.80;99.90
53498;DHT22;39382;47.168;16.008;2022-12-20T05:58:57;-0.80;99.90
53498;DHT22;39382;47.168;16.008;2022-12-20T06:01:24;-0.70;99.90
53498;DHT22;39382;47.168;16.008;2022-12-20T06:03:49;-0.80;99.90
53498;DHT22;39382;47.168;16.008;2022-12-20T06:06:15;0.20;99.90
53498;DHT22;39382;47.168;16.008;2022-12-20T06:08:41;0.90;99.90
53498;DHT22;39382;47.168;16.008;2022-12-20T06:11:06;1.40;99.90
53498;DHT22;39382;47.168;16.008;2022-12-20T06:13:34;0.70;99.90
